world map with OIBP marked

OIBP - Airport

This information may not be accurate or current and is not valid for navigation or flight planning. No warranty of fitness for any purpose is made or implied.

flag of Iran

Donate via PayPal

Additional information is available on the NEW Great Circle Mapper

Location
City:  Asalouyeh, Bushehr, Iran
Near (Alt.):Khalije Fars
Name:Persian Gulf Airport
ICAO / IATA:OIBP / PGU

Details
Type:Airport (Aerodrome, Airfield)
Use:Public/Civil
Latitude:27°22'47"N (27.379589)
Longitude:52°44'16"E (52.737667)
Datum:WGS 1984
Elevation:27 ft (8 m)
Runways:1
Longest:13115 × 148 ft (3997 × 45 m)

Time
Timezone:UTC+3:30 (DST+6:30)
Local Time:

Weather
METAR:OIBP  041400Z 28008KT CAVOK 20/08 Q1017 A3005
TAF:OIBP  (expired)

Related Locations
Nearby:
Farthest:GMR: 11881 mi / 19120 km
Mangareva [Totegegie], Gambier Islands, PF

Find:

   beyond  
but within

Other Information
Maps:
Sources:

  


 


Great Circle Mapper   Great Circle Mapper
Great Circle Mapper FAQ   Great Circle Mapper FAQ
  Karl's Home Page
KLSē   KLSē Home
   GC on Facebook
Airlines of the World   Airlines of the World
Donate via PayPal


Copyright © 2004-2019, Karl L. Swartz. All rights reserved.
All trademarks mentioned herein belong to their respective owners.

Please see credits for attribution and copyright information.

Karl Swartz <karl@kls2.com>
  Powered by FreeBSD
Valid HTML 4.01!
Labeled with ICRA
hCard Microformat
Geo Microformat